Stephenson, VA (22656)

7:25 PM EST on March 01, 2015 (GMT -0500)
Snowden Bridge | Change Station
CLOSE
Current Station
Personal Weather Station
Location: Stephenson, VA
Elevation: 616 ft
Nearby Weather Stations
Active Advisory: Winter Weather Advisory Active Notice: Public Information Statement

Elev 616 ft 39.22 °N, 78.10 °W | Updated 52 seconds ago

Overcast
Overcast
30.0 °F
Feels Like 30 °F
N
0.0
Wind Variable Wind from NE
Gusts 0.0 mph

Today
High -- | Low -- °F
--% Chance of Precip.
Yesterday
High -- | Low -- °F
Precip. -- in
6:45 AM 6:04 PM
Waxing Gibbous, 88% visible
Pressure 30.23 in
Visibility 7.0 miles
Clouds Overcast 5000 ft
Windchill 30 °F
Dew Point 28 °F
Humidity 93%
Rainfall 0.05 in
Snow Depth Not available.
UV 0 out of 12
Pollen .60 out of 12
Air Quality Not available.
Flu Activity Not available.
METAR KOKV 020015Z AUTO 14003KT 7SM OVC050 00/M02 A3023 RMK AO2

More Conditions Fewer Conditions

Pressure 30.23 in
Visibility 7.0 miles
Clouds Overcast 5000 ft
Windchill 30 °F
Dew Point 28 °F
Humidity 93%
Rainfall 0.05 in
Snow Depth Not available.
UV 0 out of 12
Pollen .60 out of 12
Air Quality Not available.
Flu Activity Not available.
METAR KOKV 020015Z AUTO 14003KT 7SM OVC050 00/M02 A3023 RMK AO2

More Conditions Fewer Conditions

10-Day Weather Forecast

Almanac

Astronomy

Mar. 01, 2015 Rise Set
Actual Time
Civil Twilight
Nautical Twilight
Astronomical Twilight
Moon
Length of Visible Light
Length of Day
Tomorrow will be .
, % of the Moon is Illuminated

Today's Extremes

State Highs State Lows

Community

WunderPhotos

Upload Photos

1,801,647 photos uploaded!

WunderBlogs® & News

Nearby

Air Quality

  Air Quality AQ Index Pollutant
Not available.

Snow Depth

Station Depth Elevation

Earthquake Activity

City Distance Mag. Time & Date
Minimum magnitude displayed is 2.5.

Coastal Water Temperatures

Place Temperature

Nearby Weather Stations

Winter Weather Advisory
Statement as of 6:57 PM EST on March 01, 2015

... Winter Weather Advisory remains in effect until 3 am EST
Monday...

* locations... western Maryland as well as the eastern West
Virginia Panhandle and portions of northern Virginia...
including the northern Shenandoah Valley.

* Hazard types... freezing rain.

* Accumulations... ice accumulation around one-tenth of an inch.

* Timing... precipitation will taper off late tonight as freezing
drizzle.

* Impacts... roads ice covered through tonight. Travelling will
be dangerous during this time.

* Winds... south around 5 to 10 mph with gusts around 15 to 20
mph along the ridges above 2000 feet.

* Temperatures... rising into the lower 30s this evening into
tonight.

Precautionary/preparedness actions...

A Winter Weather Advisory means that periods of freezing rain
will cause travel difficulties. Be prepared for slippery roads
and limited visibilities... and use caution while driving.